Latest Weather Observations for Westmere

IDV60801

Issued at 5:31 pm EST Wednesday 27 May 2015 (issued every 30 minutes, with the page automatically refreshed every 10 minutes)

About weather observations | Map of weather stations | Latest weather observations for VIC | Other Formats
Station Details ID: 089112 Name: WESTMERE Lat: -37.71 Lon: 142.94 Height: 226.0 m
Data from the previous 72 hours. | See also: Recent months at Westmere
Date/Time
EST
Temp
°C
App
Temp
°C
Dew
Point
Rel
Hum
%
Delta-T
°C
Wind Press
QNH
hPa
Press
MSL
hPa
Rain
since 9 am
mm
Dir
 
Spd
km/h
Gust
km/h
Spd
kts
Gust
kts
27/05:30pm 14.2 11.7 8.2 67 3.0 NW 11 15 6 8 1017.4 1017.5 0.0
27/05:00pm 16.0 12.9 8.7 62 3.8 NW 15 19 8 10 1017.2 1017.3 0.0
27/04:30pm 16.6 12.6 8.3 58 4.3 NW 19 24 10 13 1017.0 1017.2 0.0
27/04:00pm 17.8 13.7 8.6 55 4.8 NW 20 28 11 15 1017.0 1017.2 0.0
27/03:30pm 17.6 13.3 9.5 59 4.3 NNW 22 32 12 17 1017.0 1017.2 0.0
27/03:00pm 18.1 13.0 9.2 56 4.7 NNW 26 35 14 19 1016.8 1017.0 0.0
27/02:30pm 18.2 12.9 9.8 58 4.5 NW 28 37 15 20 1016.8 1017.0 0.0
27/02:00pm 18.5 13.3 10.1 58 4.5 NW 28 39 15 21 1016.9 1017.1 0.0
27/01:30pm 17.6 12.6 9.5 59 4.3 NNW 26 37 14 20 1017.4 1017.5 0.0
27/01:00pm 17.4 12.5 9.8 61 4.0 NNW 26 35 14 19 1017.6 1017.7 0.0
27/12:30pm 17.3 12.4 10.0 62 3.9 NNW 26 33 14 18 1017.9 1018.0 0.0
27/12:00pm 17.1 13.2 10.7 66 3.5 N 22 35 12 19 1018.4 1018.5 0.0
27/11:30am 15.2 10.0 10.2 72 2.6 N 28 37 15 20 1018.8 1018.9 0.0
27/11:00am 15.0 10.5 10.2 73 2.5 N 24 32 13 17 1019.2 1019.3 0.0
27/10:30am 14.2 8.9 10.0 76 2.2 N 28 37 15 20 1019.3 1019.4 0.0
27/10:00am 13.4 8.5 10.0 80 1.8 N 26 33 14 18 1019.6 1019.7 0.0
27/09:30am 12.4 7.5 9.8 84 1.3 N 26 32 14 17 1019.5 1019.6 0.0
27/09:00am 11.0 7.0 9.1 88 1.0 N 20 26 11 14 1019.6 1019.7 0.2
27/08:30am 10.8 7.0 8.9 88 1.0 N 19 24 10 13 1019.6 1019.7 0.2
27/08:00am 10.3 6.3 8.4 88 0.9 N 19 24 10 13 1019.2 1019.3 0.2
27/07:30am 10.5 6.5 8.4 87 1.0 N 19 24 10 13 1019.3 1019.4 0.2
27/07:00am 10.2 6.2 8.1 87 1.0 N 19 24 10 13 1019.1 1019.2 0.2
27/06:30am 10.2 6.5 8.0 86 1.1 N 17 24 9 13 1018.9 1019.0 0.2
27/06:00am 10.2 5.9 7.8 85 1.2 N 20 26 11 14 1018.9 1019.0 0.2
27/05:30am 9.1 6.4 7.5 90 0.8 NNE 11 17 6 9 1019.1 1019.2 0.2
27/05:00am 8.5 6.1 7.0 90 0.7 NNE 9 13 5 7 1019.3 1019.4 0.2
27/04:30am 9.4 5.2 7.3 87 1.0 N 19 20 10 11 1019.2 1019.3 0.2
27/04:00am 10.2 6.0 7.6 84 1.3 N 19 22 10 12 1019.4 1019.5 0.2
27/03:30am 10.4 7.1 8.0 85 1.2 N 15 19 8 10 1019.8 1019.9 0.2
27/03:00am 10.6 7.3 8.0 84 1.3 N 15 19 8 10 1020.2 1020.3 0.2
27/02:30am 11.4 7.2 8.1 80 1.6 N 20 26 11 14 1020.4 1020.6 0.2
27/02:00am 10.9 7.7 8.5 85 1.2 N 15 20 8 11 1020.6 1020.8 0.2
27/01:30am 10.8 7.6 8.6 86 1.1 N 15 20 8 11 1020.8 1021.0 0.2
27/01:00am 10.3 7.9 8.7 90 0.8 N 11 13 6 7 1021.2 1021.4 0.2
27/12:30am 10.7 7.1 8.3 85 1.2 N 17 20 9 11 1021.6 1021.8 0.2
27/12:00am 11.2 7.2 8.2 82 1.5 N 19 24 10 13 1021.9 1022.0 0.0
 
Date/Time
EST
Temp
°C
App
Temp
°C
Dew
Point
Rel
Hum
%
Delta-T
°C
Wind Press
QNH
hPa
Press
MSL
hPa
Rain
since 9 am
mm
Dir
 
Spd
km/h
Gust
km/h
Spd
kts
Gust
kts
26/11:30pm 11.0 7.0 8.2 83 1.4 N 19 24 10 13 1022.1 1022.2 0.0
26/11:00pm 11.2 6.2 8.2 82 1.5 N 24 32 13 17 1022.4 1022.5 0.0
26/10:30pm 10.6 6.1 8.4 86 1.1 N 22 30 12 16 1022.5 1022.6 0.0
26/10:00pm 10.0 6.3 8.1 88 0.9 N 17 20 9 11 1022.9 1023.0 0.0
26/09:30pm 9.9 6.9 7.8 87 1.0 N 13 15 7 8 1022.9 1023.0 0.0
26/09:00pm 9.3 6.0 8.1 92 0.6 N 15 17 8 9 1023.0 1023.1 0.0
26/08:30pm 7.9 5.9 7.3 96 0.3 NNE 7 9 4 5 1023.0 1023.1 0.0
26/08:00pm 8.0 5.7 7.4 96 0.3 NNE 9 11 5 6 1023.0 1023.1 0.0
26/07:30pm 8.1 5.3 7.0 93 0.5 NNE 11 11 6 6 1023.3 1023.4 0.0
26/07:00pm 9.0 6.7 7.6 91 0.7 NNE 9 11 5 6 1023.3 1023.4 0.0
26/06:30pm 10.4 8.3 8.2 86 1.1 NNE 9 9 5 5 1023.4 1023.5 0.0
26/06:00pm 11.2 9.3 8.9 86 1.2 NNE 9 11 5 6 1023.4 1023.5 0.0
26/05:30pm 11.0 9.0 8.6 85 1.2 NNE 9 9 5 5 1023.3 1023.4 0.0
26/05:00pm 12.9 11.0 9.2 78 1.9 NNE 9 11 5 6 1023.4 1023.5 0.0
26/04:30pm 13.8 10.8 9.3 74 2.3 N 15 17 8 9 1023.5 1023.6 0.0
26/04:00pm 14.4 10.6 9.0 70 2.8 N 19 22 10 12 1023.5 1023.6 0.0
26/03:30pm 16.0 12.2 9.7 66 3.3 NNE 20 26 11 14 1023.7 1023.8 0.0
26/03:00pm 15.6 13.0 9.5 67 3.2 NNE 13 19 7 10 1024.0 1024.1 0.0
26/02:30pm 14.9 12.5 8.8 67 3.1 NNE 11 15 6 8 1024.4 1024.6 0.0
26/02:00pm 14.7 12.5 9.3 70 2.8 NE 11 15 6 8 1024.7 1024.9 0.0
26/01:30pm 14.0 12.0 8.8 71 2.7 NE 9 13 5 7 1025.0 1025.2 0.0
26/01:00pm 13.3 11.6 8.4 72 2.5 ENE 7 9 4 5 1025.5 1025.7 0.0
26/12:30pm 12.3 11.3 8.8 79 1.8 NE 4 6 2 3 1026.1 1026.3 0.0
26/12:00pm 11.8 10.1 8.5 80 1.6 N 7 9 4 5 1026.9 1027.0 0.0
26/11:30am 11.2 9.7 8.4 83 1.4 NNE 6 7 3 4 1027.3 1027.4 0.0
26/11:00am 10.1 8.3 8.0 87 1.0 NNE 7 9 4 5 1027.9 1028.1 0.0
26/10:30am 9.1 7.3 7.1 87 1.0 NE 6 9 3 5 1028.1 1028.3 0.0
26/10:00am 7.9 6.1 7.0 94 0.4 NE 6 7 3 4 1028.2 1028.4 0.0
26/09:30am 6.9 5.7 6.6 98 0.1 NE 2 4 1 2 1028.4 1028.6 0.0
26/09:00am 5.6 3.8 5.5 99 0.0 NE 4 6 2 3 1028.5 1028.7 0.0
26/08:30am 3.9 1.4 3.8 99 0.0 ENE 6 6 3 3 1028.5 1028.7 0.0
26/08:00am 2.1 -0.7 2.0 99 0.0 ENE 6 6 3 3 1028.7 1028.9 0.0
26/07:30am 2.6 -0.1 2.5 99 0.0 N 6 7 3 4 1028.8 1029.0 0.0
26/07:00am 1.1 -1.5 1.0 99 0.0 NE 4 6 2 3 1028.4 1028.6 0.0
26/06:30am 0.8 -1.1 0.7 99 0.0 CALM 0 0 0 0 1028.3 1028.5 0.0
26/06:00am 0.6 -1.3 0.5 99 0.0 CALM 0 0 0 0 1028.1 1028.3 0.0
26/05:30am 1.5 -1.0 1.4 99 0.0 NE 4 6 2 3 1028.2 1028.4 0.0
26/05:00am 0.3 -2.8 0.2 99 0.0 NNE 6 9 3 5 1028.4 1028.6 0.0
26/04:30am 0.7 -2.0 0.6 99 0.0 NNE 4 4 2 2 1028.4 1028.6 0.0
26/04:00am 1.3 -1.3 1.2 99 0.0 NNE 4 4 2 2 1028.3 1028.5 0.0
26/03:30am 2.5 0.1 2.4 99 0.0 NNE 4 6 2 3 1028.5 1028.7 0.0
26/03:00am 3.0 0.7 2.9 99 0.0 NNE 4 6 2 3 1028.8 1029.0 0.0
26/02:30am 3.6 1.1 3.5 99 0.0 NE 6 7 3 4 1028.9 1029.1 0.0
26/02:00am 2.8 0.1 2.7 99 0.0 NNE 6 7 3 4 1029.0 1029.2 0.0
26/01:30am 2.9 -0.4 2.6 98 0.1 N 9 11 5 6 1029.1 1029.3 0.0
26/01:00am 4.3 2.6 4.2 99 0.0 NNE 2 4 1 2 1029.1 1029.3 0.0
26/12:30am 3.8 1.3 3.5 98 0.1 NNE 6 7 3 4 1029.3 1029.5 0.0
26/12:00am 3.6 0.8 3.3 98 0.1 NNE 7 11 4 6 1029.5 1029.7 0.0
 
Date/Time
EST
Temp
°C
App
Temp
°C
Dew
Point
Rel
Hum
%
Delta-T
°C
Wind Press
QNH
hPa
Press
MSL
hPa
Rain
since 9 am
mm
Dir
 
Spd
km/h
Gust
km/h
Spd
kts
Gust
kts
25/11:30pm 3.8 1.3 3.5 98 0.1 NE 6 6 3 3 1029.4 1029.6 0.0
25/11:00pm 3.8 1.6 3.2 96 0.2 NE 4 7 2 4 1029.4 1029.6 0.0
25/10:30pm 4.6 2.6 4.2 97 0.2 NE 4 6 2 3 1029.4 1029.6 0.0
25/10:00pm 4.2 1.7 3.8 97 0.2 NE 6 7 3 4 1029.6 1029.8 0.0
25/09:30pm 4.7 2.6 4.1 96 0.3 WSW 4 6 2 3 1029.7 1029.9 0.0
25/09:00pm 5.7 4.6 5.0 95 0.3 CALM 0 0 0 0 1029.9 1030.1 0.0
25/08:30pm 7.0 5.2 5.3 89 0.8 WSW 4 4 2 2 1029.8 1030.0 0.0
25/08:00pm 8.1 6.1 6.1 87 0.9 W 6 7 3 4 1029.7 1029.9 0.0
25/07:30pm 7.2 4.2 5.8 91 0.6 N 11 11 6 6 1029.4 1029.6 0.0
25/07:00pm 7.7 5.1 6.0 89 0.8 N 9 11 5 6 1029.3 1029.5 0.0
25/06:30pm 9.2 6.3 6.5 83 1.3 N 11 13 6 7 1029.0 1029.2 0.0
25/06:00pm 9.2 6.6 6.3 82 1.3 N 9 11 5 6 1028.7 1028.9 0.0
25/05:30pm 11.2 8.6 6.3 72 2.3 N 9 9 5 5 1028.4 1028.6 0.0
25/05:00pm 13.3 11.3 6.9 65 3.1 N 7 9 4 5 1028.1 1028.3 0.0
25/04:30pm 15.7 14.1 6.2 53 4.7 NNW 4 6 2 3 1028.2 1028.4 0.0
25/04:00pm 15.9 13.7 6.1 52 4.8 N 7 11 4 6 1028.1 1028.3 0.0
25/03:30pm 16.1 13.9 6.3 52 4.8 NNW 7 11 4 6 1028.1 1028.3 0.0
25/03:00pm 16.3 14.1 6.4 52 4.9 NNW 7 13 4 7 1028.2 1028.4 0.0
25/02:30pm 16.1 13.7 6.8 54 4.6 N 9 15 5 8 1028.2 1028.4 0.0
25/02:00pm 16.0 13.1 6.4 53 4.7 NNW 11 15 6 8 1028.4 1028.6 0.0
25/01:30pm 16.0 12.8 6.7 54 4.6 NNW 13 17 7 9 1028.7 1028.9 0.0
25/01:00pm 15.9 12.6 6.6 54 4.6 NNW 13 19 7 10 1029.1 1029.3 0.0
25/12:30pm 15.4 11.9 7.2 58 4.1 N 15 22 8 12 1029.5 1029.7 0.0
25/12:00pm 15.0 11.5 7.1 59 3.9 NNW 15 22 8 12 1029.9 1030.1 0.0
25/11:30am 14.6 10.8 7.4 62 3.6 NNW 17 22 9 12 1030.4 1030.6 0.0
25/11:00am 13.9 10.1 7.4 65 3.2 N 17 20 9 11 1030.7 1030.9 0.0
25/10:30am 12.9 9.5 7.6 70 2.6 NNW 15 19 8 10 1030.8 1031.0 0.0
25/10:00am 11.9 8.9 7.6 75 2.1 N 13 19 7 10 1030.7 1030.9 0.0
25/09:30am 10.5 8.4 8.1 85 1.2 N 9 17 5 9 1030.7 1030.9 0.0
25/09:00am 7.9 6.5 7.1 95 0.4 NNE 4 6 2 3 1030.9 1031.1 0.0
25/08:30am 7.0 4.0 6.1 94 0.4 NNE 11 13 6 7 1030.6 1030.8 0.0
25/08:00am 7.4 4.4 6.2 92 0.5 N 11 15 6 8 1030.5 1030.7 0.0
25/07:30am 7.5 4.6 6.3 92 0.6 N 11 13 6 7 1030.4 1030.6 0.0
25/07:00am 8.0 5.8 6.3 89 0.8 N 7 11 4 6 1030.4 1030.6 0.0
25/06:30am 8.5 4.9 6.6 88 0.9 N 15 20 8 11 1030.3 1030.5 0.0
25/06:00am 8.6 5.0 6.7 88 0.9 N 15 20 8 11 1030.0 1030.2 0.0
25/05:30am 8.4 5.1 6.5 88 0.9 N 13 17 7 9 1029.8 1030.0 0.0
25/05:00am 7.2 4.6 6.1 93 0.5 N 9 11 5 6 1029.8 1030.0 0.0
25/04:30am 7.5 4.9 6.3 92 0.6 N 9 13 5 7 1029.8 1030.0 0.0
25/04:00am 7.3 4.7 6.2 93 0.5 N 9 13 5 7 1029.5 1029.7 0.0
25/03:30am 7.2 5.5 5.8 91 0.6 N 4 6 2 3 1029.1 1029.3 0.0
25/03:00am 7.3 4.3 6.2 93 0.5 N 11 15 6 8 1029.3 1029.5 0.0
25/02:30am 7.0 4.4 6.1 94 0.4 NNE 9 11 5 6 1029.2 1029.4 0.0
25/02:00am 6.5 4.2 5.6 94 0.4 NNE 7 9 4 5 1029.5 1029.7 0.0
25/01:30am 6.8 3.7 5.6 92 0.5 N 11 13 6 7 1029.5 1029.7 0.0
25/01:00am 7.3 4.3 5.9 91 0.6 N 11 15 6 8 1029.8 1030.0 0.0
25/12:30am 8.2 4.5 6.3 88 0.9 N 15 19 8 10 1029.8 1030.0 0.0
25/12:00am 7.1 5.0 5.7 91 0.6 N 6 6 3 3 1029.8 1030.0 0.0
 
Date/Time
EST
Temp
°C
App
Temp
°C
Dew
Point
Rel
Hum
%
Delta-T
°C
Wind Press
QNH
hPa
Press
MSL
hPa
Rain
since 9 am
mm
Dir
 
Spd
km/h
Gust
km/h
Spd
kts
Gust
kts
24/11:30pm 8.1 5.9 6.1 87 0.9 N 7 11 4 6 1030.0 1030.2 0.0
24/11:00pm 7.8 5.3 6.4 91 0.6 N 9 13 5 7 1030.1 1030.3 0.0
24/10:30pm 6.0 3.9 5.6 97 0.2 N 6 9 3 5 1030.3 1030.5 0.0
24/10:00pm 5.4 4.2 4.7 95 0.3 CALM 0 4 0 2 1030.2 1030.4 0.0
24/09:30pm 6.4 4.6 5.5 94 0.4 N 4 4 2 2 1030.4 1030.6 0.0
24/09:00pm 5.8 3.6 5.1 95 0.3 NNE 6 6 3 3 1030.1 1030.3 0.0
24/08:30pm 5.4 2.9 4.7 95 0.3 NNE 7 9 4 5 1030.0 1030.2 0.0
24/08:00pm 5.9 4.0 4.9 93 0.4 NNE 4 4 2 2 1030.1 1030.3 0.0
24/07:30pm 7.1 4.8 5.9 92 0.5 NNE 7 7 4 4 1030.0 1030.2 0.0
24/07:00pm 8.5 6.3 6.3 86 1.0 N 7 9 4 5 1029.9 1030.1 0.0
24/06:30pm 9.2 6.4 6.8 85 1.1 N 11 13 6 7 1029.8 1030.0 0.0
24/06:00pm 9.2 6.0 6.8 85 1.1 N 13 15 7 8 1029.6 1029.8 0.0

Other Formats:

Comma delimited format used in spreadsheet applications
http://www.bom.gov.au/fwo/IDV60801/IDV60801.95840.axf

JavaScript Object Notation format (JSON) in row-major order
http://www.bom.gov.au/fwo/IDV60801/IDV60801.95840.json